Airfield :
LOGIN :

Register | Disclaimer

   EN    FR    IT 

 










Legend :    VFR   Marginal VFR   IFR   Intensive IFR   Very Intensive IFR
Visi :
Ceiling :
>= 8 km
>= 3000ft
5 to 8 km
1000 to 3000 ft
1500m to 5 km
500 to 1000 ft
800 to 1500m
200 to 500 ft
< 800m
< 200 ft
Symbols :   Thunderstorms  Fog  Heavy snow  Heavy precipitations  Wind > 20 kt
SIGMETs :     Misc.  Thunderstorms  Icing  Turbulence  Mountain Waves  Volcanic Ashes







- Airport Elevation : 56 ft
- IATA code : ILY
- Download approach charts


EGPI - Islay

CURRENT METAR :
  • 161020Z AUTO 18012KT 150V210 9999 FEW018/// BKN027/// 10/07 Q1012

EXPIRED METARs :
  • 160950Z 18011KT 140V210 9999 BKN016 09/07 Q1012
  • 160920Z 18012KT 8000 VCSH FEW016 SCT020 BKN032 09/07 Q1012
  • 160850Z 18011KT 150V220 9999 BKN030 09/07 Q1012
  • 160820Z 19009KT 160V220 9999 FEW015 SCT048 08/06 Q1011

TAF TAF EGPI
Valid from the 16 at 09:00 until the 16 at 18:00 UTC


160802Z 1609/1618 20012KT 9999 SCT025
PROB30
TEMPO 1609/1612 21015G25KT 7000 SHRA
TEMPO 1612/1618 17015G25KT
No reported NOTAMs for that airfield.



MET'MAP, your aeronautical weather chart ! - Copyright ORBIFLY December 2007 - Disclaimer

ORBIFLY MET'MAP TEAM :

Programming & Development : Alexandra Zaïnal
Concept & Development : Baudouin d'Aumeries
Co-Development & Prog : Marc-Olivier Méhu
Technical & hardware support : Manuel Goepfert

Contact : metmap@orbifly.com




SOURCES & CREDITS :

   NOAA